sensor_id;sensor_type;location;lat;lon;timestamp;P1;durP1;ratioP1;P2;durP2;ratioP2
48042;SDS011;33988;47.992;8.820;2022-08-25T00:01:56;2.22;;;1.75;;
48042;SDS011;33988;47.992;8.820;2022-08-25T00:04:29;1.75;;;1.65;;
48042;SDS011;33988;47.992;8.820;2022-08-25T00:07:02;1.70;;;1.60;;
48042;SDS011;33988;47.992;8.820;2022-08-25T00:09:30;2.05;;;1.85;;
48042;SDS011;33988;47.992;8.820;2022-08-25T00:12:01;2.55;;;1.52;;
48042;SDS011;33988;47.992;8.820;2022-08-25T00:14:32;2.17;;;1.95;;
48042;SDS011;33988;47.992;8.820;2022-08-25T00:17:03;4.38;;;2.22;;
48042;SDS011;33988;47.992;8.820;2022-08-25T00:22:03;1.92;;;1.80;;
48042;SDS011;33988;47.992;8.820;2022-08-25T00:24:33;3.85;;;1.55;;
48042;SDS011;33988;47.992;8.820;2022-08-25T00:27:05;2.20;;;2.00;;
48042;SDS011;33988;47.992;8.820;2022-08-25T00:29:34;2.78;;;2.05;;
48042;SDS011;33988;47.992;8.820;2022-08-25T00:32:03;2.33;;;1.80;;
48042;SDS011;33988;47.992;8.820;2022-08-25T00:34:32;2.78;;;1.85;;
48042;SDS011;33988;47.992;8.820;2022-08-25T00:37:05;3.20;;;1.98;;
48042;SDS011;33988;47.992;8.820;2022-08-25T00:39:35;2.22;;;1.90;;
48042;SDS011;33988;47.992;8.820;2022-08-25T00:42:04;3.08;;;1.83;;
48042;SDS011;33988;47.992;8.820;2022-08-25T00:44:41;2.10;;;1.90;;
48042;SDS011;33988;47.992;8.820;2022-08-25T00:47:09;2.53;;;1.92;;
48042;SDS011;33988;47.992;8.820;2022-08-25T00:49:42;2.00;;;1.88;;
48042;SDS011;33988;47.992;8.820;2022-08-25T00:52:26;1.90;;;1.73;;
48042;SDS011;33988;47.992;8.820;2022-08-25T00:57:35;1.85;;;1.40;;
48042;SDS011;33988;47.992;8.820;2022-08-25T01:00:14;2.00;;;1.80;;
48042;SDS011;33988;47.992;8.820;2022-08-25T01:02:44;1.85;;;1.75;;
48042;SDS011;33988;47.992;8.820;2022-08-25T01:05:12;2.15;;;1.95;;
48042;SDS011;33988;47.992;8.820;2022-08-25T01:07:40;2.08;;;1.70;;
48042;SDS011;33988;47.992;8.820;2022-08-25T01:10:11;2.08;;;1.83;;
48042;SDS011;33988;47.992;8.820;2022-08-25T01:12:41;2.88;;;2.13;;
48042;SDS011;33988;47.992;8.820;2022-08-25T01:15:09;1.83;;;1.73;;
48042;SDS011;33988;47.992;8.820;2022-08-25T01:17:48;2.60;;;2.08;;
48042;SDS011;33988;47.992;8.820;2022-08-25T01:20:20;2.58;;;2.20;;
48042;SDS011;33988;47.992;8.820;2022-08-25T01:22:57;2.08;;;1.40;;
48042;SDS011;33988;47.992;8.820;2022-08-25T01:28:03;1.95;;;1.73;;
48042;SDS011;33988;47.992;8.820;2022-08-25T01:30:32;2.45;;;2.25;;
48042;SDS011;33988;47.992;8.820;2022-08-25T01:33:04;2.08;;;1.88;;
48042;SDS011;33988;47.992;8.820;2022-08-25T01:35:35;2.80;;;2.03;;
48042;SDS011;33988;47.992;8.820;2022-08-25T01:38:04;2.03;;;1.80;;
48042;SDS011;33988;47.992;8.820;2022-08-25T01:40:34;2.20;;;2.00;;
48042;SDS011;33988;47.992;8.820;2022-08-25T01:45:44;2.05;;;1.80;;
48042;SDS011;33988;47.992;8.820;2022-08-25T01:48:15;2.03;;;1.55;;
48042;SDS011;33988;47.992;8.820;2022-08-25T01:50:44;1.75;;;1.63;;
48042;SDS011;33988;47.992;8.820;2022-08-25T01:55:59;1.73;;;1.58;;
48042;SDS011;33988;47.992;8.820;2022-08-25T01:58:38;2.15;;;1.95;;
48042;SDS011;33988;47.992;8.820;2022-08-25T02:01:10;1.70;;;1.60;;
48042;SDS011;33988;47.992;8.820;2022-08-25T02:03:43;1.52;;;1.42;;
48042;SDS011;33988;47.992;8.820;2022-08-25T02:06:17;1.70;;;1.58;;
48042;SDS011;33988;47.992;8.820;2022-08-25T02:08:56;1.80;;;1.65;;
48042;SDS011;33988;47.992;8.820;2022-08-25T02:11:31;2.20;;;2.00;;
48042;SDS011;33988;47.992;8.820;2022-08-25T02:14:00;2.45;;;2.05;;
48042;SDS011;33988;47.992;8.820;2022-08-25T02:16:28;1.67;;;1.58;;
48042;SDS011;33988;47.992;8.820;2022-08-25T02:18:59;2.28;;;1.50;;
48042;SDS011;33988;47.992;8.820;2022-08-25T02:21:27;1.95;;;1.75;;
48042;SDS011;33988;47.992;8.820;2022-08-25T02:23:57;3.73;;;1.90;;
48042;SDS011;33988;47.992;8.820;2022-08-25T02:26:27;1.90;;;1.63;;
48042;SDS011;33988;47.992;8.820;2022-08-25T02:28:58;2.45;;;1.63;;
48042;SDS011;33988;47.992;8.820;2022-08-25T02:31:28;2.13;;;1.92;;
48042;SDS011;33988;47.992;8.820;2022-08-25T02:33:55;2.53;;;1.95;;
48042;SDS011;33988;47.992;8.820;2022-08-25T02:36:24;1.88;;;1.77;;
48042;SDS011;33988;47.992;8.820;2022-08-25T02:38:52;1.52;;;1.42;;
48042;SDS011;33988;47.992;8.820;2022-08-25T02:41:21;1.90;;;1.80;;
48042;SDS011;33988;47.992;8.820;2022-08-25T02:43:57;1.92;;;1.83;;
48042;SDS011;33988;47.992;8.820;2022-08-25T02:46:31;2.92;;;1.75;;
48042;SDS011;33988;47.992;8.820;2022-08-25T02:49:01;1.83;;;1.73;;
48042;SDS011;33988;47.992;8.820;2022-08-25T02:51:29;1.95;;;1.70;;
48042;SDS011;33988;47.992;8.820;2022-08-25T02:54:00;2.25;;;2.05;;
48042;SDS011;33988;47.992;8.820;2022-08-25T02:56:29;1.95;;;1.80;;
48042;SDS011;33988;47.992;8.820;2022-08-25T02:59:01;3.22;;;2.10;;
48042;SDS011;33988;47.992;8.820;2022-08-25T03:01:29;1.90;;;1.70;;
48042;SDS011;33988;47.992;8.820;2022-08-25T03:03:59;2.13;;;1.60;;
48042;SDS011;33988;47.992;8.820;2022-08-25T03:06:28;2.03;;;1.88;;
48042;SDS011;33988;47.992;8.820;2022-08-25T03:08:58;2.47;;;2.28;;
48042;SDS011;33988;47.992;8.820;2022-08-25T03:11:26;2.92;;;2.28;;
48042;SDS011;33988;47.992;8.820;2022-08-25T03:13:53;2.72;;;2.35;;
48042;SDS011;33988;47.992;8.820;2022-08-25T03:16:24;2.40;;;2.20;;
48042;SDS011;33988;47.992;8.820;2022-08-25T03:18:53;2.80;;;2.42;;
48042;SDS011;33988;47.992;8.820;2022-08-25T03:21:23;2.42;;;2.22;;
48042;SDS011;33988;47.992;8.820;2022-08-25T03:23:55;2.63;;;2.22;;
48042;SDS011;33988;47.992;8.820;2022-08-25T03:26:22;3.10;;;2.17;;
48042;SDS011;33988;47.992;8.820;2022-08-25T03:29:08;2.35;;;2.15;;
48042;SDS011;33988;47.992;8.820;2022-08-25T03:31:39;2.00;;;1.80;;
48042;SDS011;33988;47.992;8.820;2022-08-25T03:34:13;2.63;;;2.00;;
48042;SDS011;33988;47.992;8.820;2022-08-25T03:36:45;2.53;;;1.85;;
48042;SDS011;33988;47.992;8.820;2022-08-25T03:39:15;3.15;;;1.95;;
48042;SDS011;33988;47.992;8.820;2022-08-25T03:41:46;2.17;;;1.98;;
48042;SDS011;33988;47.992;8.820;2022-08-25T03:44:14;2.08;;;1.90;;
48042;SDS011;33988;47.992;8.820;2022-08-25T03:46:45;1.77;;;1.67;;
48042;SDS011;33988;47.992;8.820;2022-08-25T03:51:49;2.40;;;1.77;;
48042;SDS011;33988;47.992;8.820;2022-08-25T03:54:20;3.05;;;2.33;;
48042;SDS011;33988;47.992;8.820;2022-08-25T03:56:51;2.25;;;2.05;;
48042;SDS011;33988;47.992;8.820;2022-08-25T03:59:18;1.58;;;1.48;;
48042;SDS011;33988;47.992;8.820;2022-08-25T04:01:46;2.08;;;1.85;;
48042;SDS011;33988;47.992;8.820;2022-08-25T04:04:20;2.10;;;1.90;;
48042;SDS011;33988;47.992;8.820;2022-08-25T04:06:47;2.00;;;1.80;;
48042;SDS011;33988;47.992;8.820;2022-08-25T04:09:14;1.98;;;1.77;;
48042;SDS011;33988;47.992;8.820;2022-08-25T04:11:40;2.30;;;1.88;;
48042;SDS011;33988;47.992;8.820;2022-08-25T04:14:10;2.13;;;1.92;;
48042;SDS011;33988;47.992;8.820;2022-08-25T04:16:41;2.30;;;2.00;;
48042;SDS011;33988;47.992;8.820;2022-08-25T04:19:12;2.53;;;2.15;;
48042;SDS011;33988;47.992;8.820;2022-08-25T04:21:41;2.05;;;1.85;;
48042;SDS011;33988;47.992;8.820;2022-08-25T04:24:09;2.45;;;2.25;;
48042;SDS011;33988;47.992;8.820;2022-08-25T04:26:39;2.30;;;2.03;;
48042;SDS011;33988;47.992;8.820;2022-08-25T04:29:16;2.40;;;1.80;;
48042;SDS011;33988;47.992;8.820;2022-08-25T04:31:49;3.40;;;1.85;;
48042;SDS011;33988;47.992;8.820;2022-08-25T04:34:17;3.53;;;1.95;;
48042;SDS011;33988;47.992;8.820;2022-08-25T04:36:57;2.28;;;2.08;;
48042;SDS011;33988;47.992;8.820;2022-08-25T04:39:33;2.28;;;1.75;;
48042;SDS011;33988;47.992;8.820;2022-08-25T04:42:00;3.17;;;2.20;;
48042;SDS011;33988;47.992;8.820;2022-08-25T04:44:28;2.60;;;1.92;;
48042;SDS011;33988;47.992;8.820;2022-08-25T04:46:57;3.45;;;1.98;;
48042;SDS011;33988;47.992;8.820;2022-08-25T04:49:25;2.20;;;2.00;;
48042;SDS011;33988;47.992;8.820;2022-08-25T04:51:54;3.25;;;2.20;;
48042;SDS011;33988;47.992;8.820;2022-08-25T04:54:24;2.00;;;1.85;;
48042;SDS011;33988;47.992;8.820;2022-08-25T04:56:53;2.78;;;1.85;;
48042;SDS011;33988;47.992;8.820;2022-08-25T04:59:24;2.72;;;2.00;;
48042;SDS011;33988;47.992;8.820;2022-08-25T05:01:56;2.63;;;2.30;;
48042;SDS011;33988;47.992;8.820;2022-08-25T05:04:27;2.33;;;2.13;;
48042;SDS011;33988;47.992;8.820;2022-08-25T05:06:55;3.83;;;2.28;;
48042;SDS011;33988;47.992;8.820;2022-08-25T05:09:22;2.38;;;2.08;;
48042;SDS011;33988;47.992;8.820;2022-08-25T05:11:51;2.33;;;2.13;;
48042;SDS011;33988;47.992;8.820;2022-08-25T05:14:19;2.28;;;2.05;;
48042;SDS011;33988;47.992;8.820;2022-08-25T05:16:52;2.60;;;2.22;;
48042;SDS011;33988;47.992;8.820;2022-08-25T05:19:23;3.33;;;2.13;;
48042;SDS011;33988;47.992;8.820;2022-08-25T05:21:52;2.38;;;2.17;;
48042;SDS011;33988;47.992;8.820;2022-08-25T05:24:23;2.30;;;2.10;;
48042;SDS011;33988;47.992;8.820;2022-08-25T05:26:53;2.20;;;2.00;;
48042;SDS011;33988;47.992;8.820;2022-08-25T05:29:20;2.30;;;2.05;;
48042;SDS011;33988;47.992;8.820;2022-08-25T05:31:47;1.88;;;1.77;;
48042;SDS011;33988;47.992;8.820;2022-08-25T05:34:16;2.70;;;2.17;;
48042;SDS011;33988;47.992;8.820;2022-08-25T05:36:47;2.03;;;1.87;;
48042;SDS011;33988;47.992;8.820;2022-08-25T05:39:14;2.42;;;2.15;;
48042;SDS011;33988;47.992;8.820;2022-08-25T05:41:43;2.30;;;2.10;;
48042;SDS011;33988;47.992;8.820;2022-08-25T05:44:11;2.75;;;2.20;;
48042;SDS011;33988;47.992;8.820;2022-08-25T05:46:43;2.38;;;1.77;;
48042;SDS011;33988;47.992;8.820;2022-08-25T05:49:10;3.53;;;2.17;;
48042;SDS011;33988;47.992;8.820;2022-08-25T05:51:37;2.35;;;2.15;;
48042;SDS011;33988;47.992;8.820;2022-08-25T05:54:04;3.00;;;2.40;;
48042;SDS011;33988;47.992;8.820;2022-08-25T05:56:31;2.58;;;2.08;;
48042;SDS011;33988;47.992;8.820;2022-08-25T05:58:58;1.90;;;1.65;;
48042;SDS011;33988;47.992;8.820;2022-08-25T06:01:32;2.45;;;2.05;;
48042;SDS011;33988;47.992;8.820;2022-08-25T06:04:17;1.98;;;1.80;;
48042;SDS011;33988;47.992;8.820;2022-08-25T06:06:47;2.25;;;1.98;;
48042;SDS011;33988;47.992;8.820;2022-08-25T06:09:18;4.20;;;2.40;;
48042;SDS011;33988;47.992;8.820;2022-08-25T06:11:46;1.98;;;1.88;;
48042;SDS011;33988;47.992;8.820;2022-08-25T06:14:19;2.55;;;2.35;;
48042;SDS011;33988;47.992;8.820;2022-08-25T06:16:46;3.20;;;2.00;;
48042;SDS011;33988;47.992;8.820;2022-08-25T06:19:16;2.47;;;1.90;;
48042;SDS011;33988;47.992;8.820;2022-08-25T06:21:44;3.55;;;2.55;;
48042;SDS011;33988;47.992;8.820;2022-08-25T06:24:11;3.35;;;2.80;;
48042;SDS011;33988;47.992;8.820;2022-08-25T06:26:43;4.20;;;2.40;;
48042;SDS011;33988;47.992;8.820;2022-08-25T06:29:13;3.58;;;2.70;;
48042;SDS011;33988;47.992;8.820;2022-08-25T06:31:42;3.10;;;2.53;;
48042;SDS011;33988;47.992;8.820;2022-08-25T06:34:12;3.03;;;2.55;;
48042;SDS011;33988;47.992;8.820;2022-08-25T06:36:39;2.47;;;2.28;;
48042;SDS011;33988;47.992;8.820;2022-08-25T06:39:06;6.30;;;2.50;;
48042;SDS011;33988;47.992;8.820;2022-08-25T06:41:36;2.85;;;2.55;;
48042;SDS011;33988;47.992;8.820;2022-08-25T06:44:04;2.85;;;2.30;;
48042;SDS011;33988;47.992;8.820;2022-08-25T06:46:36;3.30;;;2.42;;
48042;SDS011;33988;47.992;8.820;2022-08-25T06:49:04;3.38;;;2.72;;
48042;SDS011;33988;47.992;8.820;2022-08-25T06:51:32;3.67;;;2.70;;
48042;SDS011;33988;47.992;8.820;2022-08-25T06:54:02;3.78;;;2.83;;
48042;SDS011;33988;47.992;8.820;2022-08-25T06:56:32;3.95;;;3.13;;
48042;SDS011;33988;47.992;8.820;2022-08-25T06:59:00;3.30;;;2.85;;
48042;SDS011;33988;47.992;8.820;2022-08-25T07:01:28;3.85;;;2.83;;
48042;SDS011;33988;47.992;8.820;2022-08-25T07:04:02;4.60;;;3.10;;
48042;SDS011;33988;47.992;8.820;2022-08-25T07:06:38;4.45;;;3.33;;
48042;SDS011;33988;47.992;8.820;2022-08-25T07:09:06;4.40;;;3.55;;
48042;SDS011;33988;47.992;8.820;2022-08-25T07:11:37;5.07;;;3.70;;
48042;SDS011;33988;47.992;8.820;2022-08-25T07:14:09;3.72;;;3.20;;
48042;SDS011;33988;47.992;8.820;2022-08-25T07:16:38;5.05;;;3.30;;
48042;SDS011;33988;47.992;8.820;2022-08-25T07:19:13;4.40;;;3.50;;
48042;SDS011;33988;47.992;8.820;2022-08-25T07:21:41;5.75;;;3.58;;
48042;SDS011;33988;47.992;8.820;2022-08-25T07:24:11;3.75;;;3.42;;
48042;SDS011;33988;47.992;8.820;2022-08-25T07:26:42;3.58;;;3.20;;
48042;SDS011;33988;47.992;8.820;2022-08-25T07:29:13;4.70;;;3.08;;
48042;SDS011;33988;47.992;8.820;2022-08-25T07:31:58;4.32;;;3.30;;
48042;SDS011;33988;47.992;8.820;2022-08-25T07:34:27;3.83;;;2.95;;
48042;SDS011;33988;47.992;8.820;2022-08-25T07:37:18;2.75;;;2.53;;
48042;SDS011;33988;47.992;8.820;2022-08-25T07:40:09;3.08;;;2.80;;
48042;SDS011;33988;47.992;8.820;2022-08-25T07:42:40;3.25;;;2.90;;
48042;SDS011;33988;47.992;8.820;2022-08-25T07:45:13;4.45;;;2.75;;
48042;SDS011;33988;47.992;8.820;2022-08-25T07:47:46;3.00;;;2.60;;
48042;SDS011;33988;47.992;8.820;2022-08-25T07:50:16;3.53;;;2.60;;
48042;SDS011;33988;47.992;8.820;2022-08-25T07:52:44;2.85;;;2.60;;
48042;SDS011;33988;47.992;8.820;2022-08-25T07:55:20;3.13;;;2.60;;
48042;SDS011;33988;47.992;8.820;2022-08-25T07:57:49;2.78;;;2.42;;
48042;SDS011;33988;47.992;8.820;2022-08-25T08:00:21;2.90;;;2.70;;
48042;SDS011;33988;47.992;8.820;2022-08-25T08:02:49;2.45;;;2.25;;
48042;SDS011;33988;47.992;8.820;2022-08-25T08:05:18;3.50;;;2.90;;
48042;SDS011;33988;47.992;8.820;2022-08-25T08:07:51;2.92;;;2.63;;
48042;SDS011;33988;47.992;8.820;2022-08-25T08:10:21;2.95;;;2.55;;
48042;SDS011;33988;47.992;8.820;2022-08-25T08:13:10;2.45;;;2.25;;
48042;SDS011;33988;47.992;8.820;2022-08-25T08:15:43;2.50;;;2.30;;
48042;SDS011;33988;47.992;8.820;2022-08-25T08:18:11;3.58;;;2.47;;
48042;SDS011;33988;47.992;8.820;2022-08-25T08:20:43;3.17;;;2.43;;
48042;SDS011;33988;47.992;8.820;2022-08-25T08:23:13;2.10;;;2.00;;
48042;SDS011;33988;47.992;8.820;2022-08-25T08:25:41;2.42;;;2.22;;
48042;SDS011;33988;47.992;8.820;2022-08-25T08:28:10;2.25;;;1.98;;
48042;SDS011;33988;47.992;8.820;2022-08-25T08:30:38;2.28;;;2.08;;
48042;SDS011;33988;47.992;8.820;2022-08-25T08:33:19;2.75;;;2.17;;
48042;SDS011;33988;47.992;8.820;2022-08-25T08:35:54;2.30;;;2.10;;
48042;SDS011;33988;47.992;8.820;2022-08-25T08:38:36;1.83;;;1.73;;
48042;SDS011;33988;47.992;8.820;2022-08-25T08:41:49;3.42;;;1.80;;
48042;SDS011;33988;47.992;8.820;2022-08-25T08:53:47;2.28;;;1.90;;
48042;SDS011;33988;47.992;8.820;2022-08-25T08:56:24;1.95;;;1.80;;
48042;SDS011;33988;47.992;8.820;2022-08-25T08:59:39;2.55;;;1.80;;
48042;SDS011;33988;47.992;8.820;2022-08-25T09:01:59;2.05;;;1.85;;
48042;SDS011;33988;47.992;8.820;2022-08-25T09:09:50;4.85;;;2.10;;
48042;SDS011;33988;47.992;8.820;2022-08-25T09:12:42;3.13;;;2.55;;
48042;SDS011;33988;47.992;8.820;2022-08-25T09:27:34;2.35;;;1.92;;
48042;SDS011;33988;47.992;8.820;2022-08-25T09:30:15;2.03;;;1.92;;
48042;SDS011;33988;47.992;8.820;2022-08-25T09:32:54;2.00;;;1.90;;
48042;SDS011;33988;47.992;8.820;2022-08-25T09:35:31;2.28;;;1.77;;
48042;SDS011;33988;47.992;8.820;2022-08-25T09:38:08;2.20;;;2.00;;
48042;SDS011;33988;47.992;8.820;2022-08-25T09:40:41;2.85;;;2.08;;
48042;SDS011;33988;47.992;8.820;2022-08-25T09:48:54;1.63;;;1.52;;
48042;SDS011;33988;47.992;8.820;2022-08-25T09:56:59;1.80;;;1.70;;
48042;SDS011;33988;47.992;8.820;2022-08-25T09:59:35;2.67;;;2.40;;
48042;SDS011;33988;47.992;8.820;2022-08-25T10:02:26;1.85;;;1.75;;
48042;SDS011;33988;47.992;8.820;2022-08-25T10:04:57;1.63;;;1.52;;
48042;SDS011;33988;47.992;8.820;2022-08-25T10:07:28;2.92;;;1.88;;
48042;SDS011;33988;47.992;8.820;2022-08-25T10:10:14;2.03;;;1.83;;
48042;SDS011;33988;47.992;8.820;2022-08-25T10:12:47;2.30;;;2.10;;
48042;SDS011;33988;47.992;8.820;2022-08-25T10:15:28;2.20;;;2.00;;
48042;SDS011;33988;47.992;8.820;2022-08-25T10:20:42;2.10;;;2.00;;
48042;SDS011;33988;47.992;8.820;2022-08-25T10:23:11;2.38;;;2.17;;
48042;SDS011;33988;47.992;8.820;2022-08-25T10:25:42;2.27;;;1.73;;
48042;SDS011;33988;47.992;8.820;2022-08-25T10:28:27;1.95;;;1.75;;
48042;SDS011;33988;47.992;8.820;2022-08-25T10:34:18;2.35;;;1.88;;
48042;SDS011;33988;47.992;8.820;2022-08-25T11:01:22;2.17;;;2.03;;
48042;SDS011;33988;47.992;8.820;2022-08-25T11:04:56;2.33;;;1.83;;
48042;SDS011;33988;47.992;8.820;2022-08-25T11:07:36;2.00;;;1.77;;
48042;SDS011;33988;47.992;8.820;2022-08-25T11:12:55;2.08;;;1.88;;
48042;SDS011;33988;47.992;8.820;2022-08-25T11:15:31;2.03;;;1.90;;
48042;SDS011;33988;47.992;8.820;2022-08-25T11:18:49;2.08;;;1.95;;
48042;SDS011;33988;47.992;8.820;2022-08-25T11:21:34;1.85;;;1.75;;
48042;SDS011;33988;47.992;8.820;2022-08-25T11:27:12;2.28;;;2.08;;
48042;SDS011;33988;47.992;8.820;2022-08-25T11:29:55;2.08;;;1.95;;
48042;SDS011;33988;47.992;8.820;2022-08-25T11:32:34;2.78;;;1.80;;
48042;SDS011;33988;47.992;8.820;2022-08-25T11:35:06;2.10;;;1.90;;
48042;SDS011;33988;47.992;8.820;2022-08-25T11:37:42;2.00;;;1.90;;
48042;SDS011;33988;47.992;8.820;2022-08-25T11:46:08;1.63;;;1.52;;
48042;SDS011;33988;47.992;8.820;2022-08-25T11:52:34;4.85;;;1.83;;
48042;SDS011;33988;47.992;8.820;2022-08-25T11:55:20;1.80;;;1.67;;
48042;SDS011;33988;47.992;8.820;2022-08-25T12:15:22;5.82;;;2.28;;
48042;SDS011;33988;47.992;8.820;2022-08-25T12:21:11;1.45;;;1.35;;
48042;SDS011;33988;47.992;8.820;2022-08-25T12:24:02;2.92;;;1.77;;
48042;SDS011;33988;47.992;8.820;2022-08-25T12:35:10;1.50;;;1.40;;
48042;SDS011;33988;47.992;8.820;2022-08-25T12:44:07;1.65;;;1.55;;
48042;SDS011;33988;47.992;8.820;2022-08-25T12:47:06;1.80;;;1.70;;
48042;SDS011;33988;47.992;8.820;2022-08-25T12:49:38;1.90;;;1.73;;
48042;SDS011;33988;47.992;8.820;2022-08-25T12:52:09;1.83;;;1.73;;
48042;SDS011;33988;47.992;8.820;2022-08-25T12:54:51;1.77;;;1.67;;
48042;SDS011;33988;47.992;8.820;2022-08-25T12:57:39;2.38;;;1.70;;
48042;SDS011;33988;47.992;8.820;2022-08-25T13:08:54;1.70;;;1.60;;
48042;SDS011;33988;47.992;8.820;2022-08-25T13:11:52;1.58;;;1.48;;
48042;SDS011;33988;47.992;8.820;2022-08-25T13:15:02;2.15;;;1.75;;
48042;SDS011;33988;47.992;8.820;2022-08-25T13:17:33;1.85;;;1.60;;
48042;SDS011;33988;47.992;8.820;2022-08-25T13:20:13;2.33;;;1.77;;
48042;SDS011;33988;47.992;8.820;2022-08-25T13:22:42;1.80;;;1.70;;
48042;SDS011;33988;47.992;8.820;2022-08-25T13:25:23;2.10;;;1.70;;
48042;SDS011;33988;47.992;8.820;2022-08-25T13:28:02;1.92;;;1.73;;
48042;SDS011;33988;47.992;8.820;2022-08-25T13:30:35;1.90;;;1.80;;
48042;SDS011;33988;47.992;8.820;2022-08-25T13:33:15;1.83;;;1.73;;
48042;SDS011;33988;47.992;8.820;2022-08-25T13:35:48;2.55;;;2.10;;
48042;SDS011;33988;47.992;8.820;2022-08-25T13:38:42;1.90;;;1.80;;
48042;SDS011;33988;47.992;8.820;2022-08-25T13:41:24;1.83;;;1.73;;
48042;SDS011;33988;47.992;8.820;2022-08-25T13:43:59;1.90;;;1.80;;
48042;SDS011;33988;47.992;8.820;2022-08-25T13:46:28;1.95;;;1.85;;
48042;SDS011;33988;47.992;8.820;2022-08-25T13:49:02;1.80;;;1.70;;
48042;SDS011;33988;47.992;8.820;2022-08-25T13:51:39;1.80;;;1.70;;
48042;SDS011;33988;47.992;8.820;2022-08-25T13:54:23;2.38;;;2.17;;
48042;SDS011;33988;47.992;8.820;2022-08-25T13:59:48;1.80;;;1.70;;
48042;SDS011;33988;47.992;8.820;2022-08-25T14:05:16;2.05;;;1.85;;
48042;SDS011;33988;47.992;8.820;2022-08-25T14:08:01;1.77;;;1.67;;
48042;SDS011;33988;47.992;8.820;2022-08-25T14:10:52;1.58;;;1.48;;
48042;SDS011;33988;47.992;8.820;2022-08-25T14:13:40;2.85;;;1.65;;
48042;SDS011;33988;47.992;8.820;2022-08-25T14:18:54;1.90;;;1.70;;
48042;SDS011;33988;47.992;8.820;2022-08-25T14:21:28;1.88;;;1.77;;
48042;SDS011;33988;47.992;8.820;2022-08-25T14:24:08;2.20;;;2.00;;
48042;SDS011;33988;47.992;8.820;2022-08-25T14:26:41;2.05;;;1.85;;
48042;SDS011;33988;47.992;8.820;2022-08-25T14:29:19;1.92;;;1.73;;
48042;SDS011;33988;47.992;8.820;2022-08-25T14:31:47;2.00;;;1.90;;
48042;SDS011;33988;47.992;8.820;2022-08-25T14:34:19;1.77;;;1.63;;
48042;SDS011;33988;47.992;8.820;2022-08-25T14:36:49;1.80;;;1.70;;
48042;SDS011;33988;47.992;8.820;2022-08-25T14:39:19;2.03;;;1.83;;
48042;SDS011;33988;47.992;8.820;2022-08-25T14:41:48;1.67;;;1.58;;
48042;SDS011;33988;47.992;8.820;2022-08-25T14:44:20;2.17;;;1.98;;
48042;SDS011;33988;47.992;8.820;2022-08-25T14:46:51;2.10;;;1.80;;
48042;SDS011;33988;47.992;8.820;2022-08-25T14:49:33;1.77;;;1.67;;
48042;SDS011;33988;47.992;8.820;2022-08-25T14:52:25;1.92;;;1.83;;
48042;SDS011;33988;47.992;8.820;2022-08-25T14:54:55;2.00;;;1.83;;
48042;SDS011;33988;47.992;8.820;2022-08-25T14:57:25;2.00;;;1.80;;
48042;SDS011;33988;47.992;8.820;2022-08-25T14:59:54;2.00;;;1.75;;
48042;SDS011;33988;47.992;8.820;2022-08-25T15:02:24;2.10;;;1.90;;
48042;SDS011;33988;47.992;8.820;2022-08-25T15:04:56;1.88;;;1.67;;
48042;SDS011;33988;47.992;8.820;2022-08-25T15:07:31;1.73;;;1.63;;
48042;SDS011;33988;47.992;8.820;2022-08-25T15:10:17;2.13;;;1.90;;
48042;SDS011;33988;47.992;8.820;2022-08-25T15:12:47;2.00;;;1.80;;
48042;SDS011;33988;47.992;8.820;2022-08-25T15:15:19;2.10;;;1.90;;
48042;SDS011;33988;47.992;8.820;2022-08-25T15:17:47;3.10;;;1.75;;
48042;SDS011;33988;47.992;8.820;2022-08-25T15:20:15;2.25;;;2.05;;
48042;SDS011;33988;47.992;8.820;2022-08-25T15:22:43;6.85;;;2.22;;
48042;SDS011;33988;47.992;8.820;2022-08-25T15:25:10;2.20;;;2.00;;
48042;SDS011;33988;47.992;8.820;2022-08-25T15:27:43;2.05;;;1.90;;
48042;SDS011;33988;47.992;8.820;2022-08-25T15:30:11;1.88;;;1.77;;
48042;SDS011;33988;47.992;8.820;2022-08-25T15:32:41;2.00;;;1.85;;
48042;SDS011;33988;47.992;8.820;2022-08-25T15:35:08;1.95;;;1.85;;
48042;SDS011;33988;47.992;8.820;2022-08-25T15:37:40;1.77;;;1.65;;
48042;SDS011;33988;47.992;8.820;2022-08-25T15:40:07;1.73;;;1.63;;
48042;SDS011;33988;47.992;8.820;2022-08-25T15:42:35;2.10;;;1.90;;
48042;SDS011;33988;47.992;8.820;2022-08-25T15:45:08;1.98;;;1.88;;
48042;SDS011;33988;47.992;8.820;2022-08-25T15:47:36;2.05;;;1.92;;
48042;SDS011;33988;47.992;8.820;2022-08-25T15:50:09;2.00;;;1.80;;
48042;SDS011;33988;47.992;8.820;2022-08-25T15:52:41;2.05;;;1.85;;
48042;SDS011;33988;47.992;8.820;2022-08-25T15:55:12;2.20;;;2.00;;
48042;SDS011;33988;47.992;8.820;2022-08-25T15:57:47;2.13;;;1.92;;
48042;SDS011;33988;47.992;8.820;2022-08-25T16:00:15;1.93;;;1.83;;
48042;SDS011;33988;47.992;8.820;2022-08-25T16:02:43;2.15;;;2.05;;
48042;SDS011;33988;47.992;8.820;2022-08-25T16:05:13;2.65;;;2.10;;
48042;SDS011;33988;47.992;8.820;2022-08-25T16:07:41;2.28;;;1.90;;
48042;SDS011;33988;47.992;8.820;2022-08-25T16:10:11;2.42;;;2.22;;
48042;SDS011;33988;47.992;8.820;2022-08-25T16:12:41;2.40;;;2.10;;
48042;SDS011;33988;47.992;8.820;2022-08-25T16:15:11;2.17;;;1.98;;
48042;SDS011;33988;47.992;8.820;2022-08-25T16:17:41;2.00;;;1.77;;
48042;SDS011;33988;47.992;8.820;2022-08-25T16:20:19;1.70;;;1.60;;
48042;SDS011;33988;47.992;8.820;2022-08-25T16:22:49;2.05;;;1.85;;
48042;SDS011;33988;47.992;8.820;2022-08-25T16:25:19;2.58;;;2.10;;
48042;SDS011;33988;47.992;8.820;2022-08-25T16:27:47;2.10;;;1.95;;
48042;SDS011;33988;47.992;8.820;2022-08-25T16:30:15;4.65;;;2.45;;
48042;SDS011;33988;47.992;8.820;2022-08-25T16:32:43;4.82;;;2.03;;
48042;SDS011;33988;47.992;8.820;2022-08-25T16:35:11;2.40;;;2.20;;
48042;SDS011;33988;47.992;8.820;2022-08-25T16:37:38;3.58;;;1.80;;
48042;SDS011;33988;47.992;8.820;2022-08-25T16:40:08;2.25;;;1.90;;
48042;SDS011;33988;47.992;8.820;2022-08-25T16:42:42;4.20;;;1.83;;
48042;SDS011;33988;47.992;8.820;2022-08-25T16:45:10;3.03;;;2.20;;
48042;SDS011;33988;47.992;8.820;2022-08-25T16:47:39;2.10;;;1.90;;
48042;SDS011;33988;47.992;8.820;2022-08-25T16:50:08;2.85;;;2.33;;
48042;SDS011;33988;47.992;8.820;2022-08-25T16:52:36;2.40;;;1.95;;
48042;SDS011;33988;47.992;8.820;2022-08-25T16:55:26;2.08;;;1.98;;
48042;SDS011;33988;47.992;8.820;2022-08-25T16:58:04;2.75;;;1.85;;
48042;SDS011;33988;47.992;8.820;2022-08-25T17:00:38;2.38;;;2.17;;
48042;SDS011;33988;47.992;8.820;2022-08-25T17:03:10;2.05;;;1.92;;
48042;SDS011;33988;47.992;8.820;2022-08-25T17:05:40;3.13;;;2.20;;
48042;SDS011;33988;47.992;8.820;2022-08-25T17:08:08;2.88;;;1.92;;
48042;SDS011;33988;47.992;8.820;2022-08-25T17:10:54;2.33;;;2.10;;
48042;SDS011;33988;47.992;8.820;2022-08-25T17:13:42;2.15;;;1.95;;
48042;SDS011;33988;47.992;8.820;2022-08-25T17:16:17;3.20;;;2.05;;
48042;SDS011;33988;47.992;8.820;2022-08-25T17:18:47;3.40;;;2.03;;
48042;SDS011;33988;47.992;8.820;2022-08-25T17:21:15;2.45;;;2.25;;
48042;SDS011;33988;47.992;8.820;2022-08-25T17:23:50;4.47;;;2.50;;
48042;SDS011;33988;47.992;8.820;2022-08-25T17:26:18;3.22;;;2.90;;
48042;SDS011;33988;47.992;8.820;2022-08-25T17:28:53;2.40;;;2.20;;
48042;SDS011;33988;47.992;8.820;2022-08-25T17:31:25;2.53;;;2.20;;
48042;SDS011;33988;47.992;8.820;2022-08-25T17:33:55;2.63;;;2.13;;
48042;SDS011;33988;47.992;8.820;2022-08-25T17:36:22;5.57;;;4.28;;
48042;SDS011;33988;47.992;8.820;2022-08-25T17:38:52;3.65;;;3.20;;
48042;SDS011;33988;47.992;8.820;2022-08-25T17:41:23;3.83;;;3.50;;
48042;SDS011;33988;47.992;8.820;2022-08-25T17:43:53;4.25;;;3.42;;
48042;SDS011;33988;47.992;8.820;2022-08-25T17:46:26;4.13;;;3.53;;
48042;SDS011;33988;47.992;8.820;2022-08-25T17:48:53;5.40;;;4.10;;
48042;SDS011;33988;47.992;8.820;2022-08-25T17:51:21;4.82;;;4.07;;
48042;SDS011;33988;47.992;8.820;2022-08-25T17:53:51;3.97;;;3.58;;
48042;SDS011;33988;47.992;8.820;2022-08-25T17:56:19;4.55;;;3.45;;